Marshall, Virginia
Current Conditions -  °F | °C
As of 12:35 AM on Wednesday 22 Oct 2014 (Local Time) from KHWY Reporting Station
Haze Haze  
Wind Chill: 50°   Ceiling: 5000
Heat Index: 50°   Visibility: 1.2mi
Dew Point: 50°   Wind: 3mph
Humidity: 100%   Direction: 320°NW
Pressure: 29.9"   Gusts: NA
Location:  38.86°N, 77.86°W
Report Text: KHWY 220435Z AUTO 32003KT 1 1/4SM BR OVC050 10/10 A2990 RMK AO2 VIS 3/4V5 LTG DSNT NE T01020102
Loading
Personal Weather Stations






























Interactive Weather Map
Tropical Storm Tracking
New forecast layout! Learn more

10-Day Weather Forecast

Advertisements
Track Severe Weather on mobile